sensor_id;sensor_type;location;lat;lon;timestamp;P1;durP1;ratioP1;P2;durP2;ratioP2
84589;SDS011;75075;48.816;8.740;2024-01-15T00:03:18;6.13;;;3.20;;
84589;SDS011;75075;48.816;8.740;2024-01-15T00:08:18;5.90;;;3.25;;
84589;SDS011;75075;48.816;8.740;2024-01-15T00:13:18;5.30;;;2.97;;
84589;SDS011;75075;48.816;8.740;2024-01-15T00:18:19;6.63;;;2.95;;
84589;SDS011;75075;48.816;8.740;2024-01-15T00:23:19;6.50;;;3.00;;
84589;SDS011;75075;48.816;8.740;2024-01-15T00:28:19;5.38;;;2.80;;
84589;SDS011;75075;48.816;8.740;2024-01-15T00:33:19;5.75;;;2.97;;
84589;SDS011;75075;48.816;8.740;2024-01-15T00:38:20;7.27;;;3.00;;
84589;SDS011;75075;48.816;8.740;2024-01-15T00:43:20;6.25;;;3.10;;
84589;SDS011;75075;48.816;8.740;2024-01-15T00:48:21;5.88;;;2.88;;
84589;SDS011;75075;48.816;8.740;2024-01-15T00:53:21;6.50;;;3.00;;
84589;SDS011;75075;48.816;8.740;2024-01-15T00:58:25;6.22;;;2.95;;
84589;SDS011;75075;48.816;8.740;2024-01-15T01:03:25;6.45;;;2.78;;
84589;SDS011;75075;48.816;8.740;2024-01-15T01:08:26;6.07;;;2.80;;
84589;SDS011;75075;48.816;8.740;2024-01-15T01:13:26;4.93;;;2.53;;
84589;SDS011;75075;48.816;8.740;2024-01-15T01:18:26;5.13;;;2.70;;
84589;SDS011;75075;48.816;8.740;2024-01-15T01:23:26;5.15;;;2.85;;
84589;SDS011;75075;48.816;8.740;2024-01-15T01:28:27;5.07;;;2.75;;
84589;SDS011;75075;48.816;8.740;2024-01-15T01:33:28;5.28;;;2.60;;
84589;SDS011;75075;48.816;8.740;2024-01-15T01:38:28;5.28;;;2.70;;
84589;SDS011;75075;48.816;8.740;2024-01-15T01:43:28;5.43;;;2.80;;
84589;SDS011;75075;48.816;8.740;2024-01-15T01:48:29;5.38;;;2.83;;
84589;SDS011;75075;48.816;8.740;2024-01-15T01:53:31;5.25;;;2.75;;
84589;SDS011;75075;48.816;8.740;2024-01-15T01:58:33;5.68;;;2.88;;
84589;SDS011;75075;48.816;8.740;2024-01-15T02:03:34;4.85;;;2.70;;
84589;SDS011;75075;48.816;8.740;2024-01-15T02:08:35;6.63;;;3.00;;
84589;SDS011;75075;48.816;8.740;2024-01-15T02:13:36;5.00;;;2.55;;
84589;SDS011;75075;48.816;8.740;2024-01-15T02:18:42;5.28;;;2.75;;
84589;SDS011;75075;48.816;8.740;2024-01-15T02:23:43;4.03;;;2.30;;
84589;SDS011;75075;48.816;8.740;2024-01-15T02:28:44;6.38;;;3.05;;
84589;SDS011;75075;48.816;8.740;2024-01-15T02:33:44;4.50;;;2.40;;
84589;SDS011;75075;48.816;8.740;2024-01-15T02:38:46;4.60;;;2.58;;
84589;SDS011;75075;48.816;8.740;2024-01-15T02:43:46;5.53;;;2.60;;
84589;SDS011;75075;48.816;8.740;2024-01-15T02:48:46;4.77;;;2.50;;
84589;SDS011;75075;48.816;8.740;2024-01-15T02:53:48;4.45;;;2.50;;
84589;SDS011;75075;48.816;8.740;2024-01-15T02:58:49;4.80;;;2.50;;
84589;SDS011;75075;48.816;8.740;2024-01-15T03:03:49;5.00;;;2.40;;
84589;SDS011;75075;48.816;8.740;2024-01-15T03:08:49;5.00;;;2.20;;
84589;SDS011;75075;48.816;8.740;2024-01-15T03:13:49;4.30;;;2.20;;
84589;SDS011;75075;48.816;8.740;2024-01-15T03:18:50;4.53;;;2.20;;
84589;SDS011;75075;48.816;8.740;2024-01-15T03:23:50;4.32;;;2.15;;
84589;SDS011;75075;48.816;8.740;2024-01-15T03:28:50;4.68;;;2.17;;
84589;SDS011;75075;48.816;8.740;2024-01-15T03:33:51;4.97;;;2.50;;
84589;SDS011;75075;48.816;8.740;2024-01-15T03:38:52;4.00;;;1.90;;
84589;SDS011;75075;48.816;8.740;2024-01-15T03:43:52;4.40;;;2.10;;
84589;SDS011;75075;48.816;8.740;2024-01-15T03:48:52;4.13;;;2.03;;
84589;SDS011;75075;48.816;8.740;2024-01-15T03:53:53;4.35;;;2.28;;
84589;SDS011;75075;48.816;8.740;2024-01-15T03:58:53;5.03;;;2.07;;
84589;SDS011;75075;48.816;8.740;2024-01-15T04:03:54;4.03;;;2.03;;
84589;SDS011;75075;48.816;8.740;2024-01-15T04:08:54;3.67;;;1.80;;
84589;SDS011;75075;48.816;8.740;2024-01-15T04:13:54;4.32;;;1.85;;
84589;SDS011;75075;48.816;8.740;2024-01-15T04:18:55;3.65;;;2.00;;
84589;SDS011;75075;48.816;8.740;2024-01-15T04:23:55;3.80;;;1.80;;
84589;SDS011;75075;48.816;8.740;2024-01-15T04:28:55;4.23;;;2.10;;
84589;SDS011;75075;48.816;8.740;2024-01-15T04:33:55;3.72;;;1.85;;
84589;SDS011;75075;48.816;8.740;2024-01-15T04:38:56;3.08;;;1.55;;
84589;SDS011;75075;48.816;8.740;2024-01-15T04:43:56;3.30;;;1.67;;
84589;SDS011;75075;48.816;8.740;2024-01-15T04:48:56;3.85;;;1.90;;
84589;SDS011;75075;48.816;8.740;2024-01-15T04:53:57;3.60;;;1.80;;
84589;SDS011;75075;48.816;8.740;2024-01-15T04:58:57;3.13;;;1.40;;
84589;SDS011;75075;48.816;8.740;2024-01-15T05:03:57;3.47;;;1.63;;
84589;SDS011;75075;48.816;8.740;2024-01-15T05:08:57;2.73;;;1.40;;
84589;SDS011;75075;48.816;8.740;2024-01-15T05:13:58;3.27;;;1.60;;
84589;SDS011;75075;48.816;8.740;2024-01-15T05:18:58;3.30;;;1.70;;
84589;SDS011;75075;48.816;8.740;2024-01-15T05:23:59;3.03;;;1.50;;
84589;SDS011;75075;48.816;8.740;2024-01-15T05:28:59;3.10;;;1.53;;
84589;SDS011;75075;48.816;8.740;2024-01-15T05:33:59;3.00;;;1.50;;
84589;SDS011;75075;48.816;8.740;2024-01-15T05:38:59;2.88;;;1.42;;
84589;SDS011;75075;48.816;8.740;2024-01-15T05:44:00;4.00;;;1.40;;
84589;SDS011;75075;48.816;8.740;2024-01-15T05:49:00;3.15;;;1.35;;
84589;SDS011;75075;48.816;8.740;2024-01-15T05:54:00;2.63;;;1.30;;
84589;SDS011;75075;48.816;8.740;2024-01-15T05:59:01;2.47;;;1.20;;
84589;SDS011;75075;48.816;8.740;2024-01-15T06:04:01;3.30;;;1.67;;
84589;SDS011;75075;48.816;8.740;2024-01-15T06:09:02;2.63;;;1.20;;
84589;SDS011;75075;48.816;8.740;2024-01-15T06:14:05;2.60;;;1.10;;
84589;SDS011;75075;48.816;8.740;2024-01-15T06:19:05;2.83;;;1.23;;
84589;SDS011;75075;48.816;8.740;2024-01-15T06:24:05;2.30;;;1.23;;
84589;SDS011;75075;48.816;8.740;2024-01-15T06:29:06;2.40;;;1.05;;
84589;SDS011;75075;48.816;8.740;2024-01-15T06:34:06;2.90;;;1.10;;
84589;SDS011;75075;48.816;8.740;2024-01-15T06:39:06;2.55;;;1.00;;
84589;SDS011;75075;48.816;8.740;2024-01-15T06:44:07;2.27;;;1.17;;
84589;SDS011;75075;48.816;8.740;2024-01-15T06:49:07;1.75;;;0.80;;
84589;SDS011;75075;48.816;8.740;2024-01-15T06:54:08;2.60;;;1.02;;
84589;SDS011;75075;48.816;8.740;2024-01-15T06:59:08;2.33;;;0.95;;
84589;SDS011;75075;48.816;8.740;2024-01-15T07:04:08;2.20;;;1.00;;
84589;SDS011;75075;48.816;8.740;2024-01-15T07:09:09;2.07;;;0.93;;
84589;SDS011;75075;48.816;8.740;2024-01-15T07:14:11;2.03;;;0.80;;
84589;SDS011;75075;48.816;8.740;2024-01-15T07:19:11;2.45;;;0.90;;
84589;SDS011;75075;48.816;8.740;2024-01-15T07:24:11;1.95;;;0.80;;
84589;SDS011;75075;48.816;8.740;2024-01-15T07:29:11;1.97;;;1.00;;
84589;SDS011;75075;48.816;8.740;2024-01-15T07:34:12;2.88;;;1.02;;
84589;SDS011;75075;48.816;8.740;2024-01-15T07:39:12;2.97;;;1.00;;
84589;SDS011;75075;48.816;8.740;2024-01-15T07:44:13;2.67;;;1.30;;
84589;SDS011;75075;48.816;8.740;2024-01-15T07:49:14;2.50;;;1.20;;
84589;SDS011;75075;48.816;8.740;2024-01-15T07:54:15;2.60;;;1.10;;
84589;SDS011;75075;48.816;8.740;2024-01-15T07:59:15;2.55;;;1.20;;
84589;SDS011;75075;48.816;8.740;2024-01-15T08:04:15;3.80;;;1.00;;
84589;SDS011;75075;48.816;8.740;2024-01-15T08:09:16;2.67;;;1.15;;
84589;SDS011;75075;48.816;8.740;2024-01-15T08:14:16;4.10;;;1.30;;
84589;SDS011;75075;48.816;8.740;2024-01-15T08:19:17;3.08;;;1.30;;
84589;SDS011;75075;48.816;8.740;2024-01-15T08:24:17;2.63;;;1.20;;
84589;SDS011;75075;48.816;8.740;2024-01-15T08:29:18;2.73;;;1.10;;
84589;SDS011;75075;48.816;8.740;2024-01-15T08:34:20;2.30;;;1.00;;
84589;SDS011;75075;48.816;8.740;2024-01-15T08:39:20;2.17;;;1.00;;
84589;SDS011;75075;48.816;8.740;2024-01-15T08:44:21;1.88;;;0.95;;
84589;SDS011;75075;48.816;8.740;2024-01-15T08:49:21;2.92;;;1.00;;
84589;SDS011;75075;48.816;8.740;2024-01-15T08:54:21;2.50;;;1.00;;
84589;SDS011;75075;48.816;8.740;2024-01-15T08:59:22;3.17;;;0.98;;
84589;SDS011;75075;48.816;8.740;2024-01-15T09:04:25;2.22;;;0.90;;
84589;SDS011;75075;48.816;8.740;2024-01-15T09:09:25;2.05;;;0.90;;
84589;SDS011;75075;48.816;8.740;2024-01-15T09:14:26;2.08;;;0.90;;
84589;SDS011;75075;48.816;8.740;2024-01-15T09:19:28;1.90;;;0.85;;
84589;SDS011;75075;48.816;8.740;2024-01-15T09:24:29;2.30;;;0.90;;
84589;SDS011;75075;48.816;8.740;2024-01-15T09:29:29;3.30;;;1.13;;
84589;SDS011;75075;48.816;8.740;2024-01-15T09:34:29;2.00;;;0.90;;
84589;SDS011;75075;48.816;8.740;2024-01-15T09:39:30;2.30;;;0.90;;
84589;SDS011;75075;48.816;8.740;2024-01-15T09:44:31;2.72;;;1.02;;
84589;SDS011;75075;48.816;8.740;2024-01-15T09:49:32;1.92;;;0.90;;
84589;SDS011;75075;48.816;8.740;2024-01-15T09:54:33;2.75;;;1.08;;
84589;SDS011;75075;48.816;8.740;2024-01-15T09:59:33;2.08;;;1.00;;
84589;SDS011;75075;48.816;8.740;2024-01-15T10:04:35;2.08;;;1.10;;
84589;SDS011;75075;48.816;8.740;2024-01-15T10:09:35;2.45;;;0.80;;
84589;SDS011;75075;48.816;8.740;2024-01-15T10:14:35;2.45;;;1.05;;
84589;SDS011;75075;48.816;8.740;2024-01-15T10:19:35;1.88;;;0.77;;
84589;SDS011;75075;48.816;8.740;2024-01-15T10:24:36;2.13;;;0.90;;
84589;SDS011;75075;48.816;8.740;2024-01-15T10:29:37;1.60;;;0.75;;
84589;SDS011;75075;48.816;8.740;2024-01-15T10:34:39;2.05;;;0.80;;
84589;SDS011;75075;48.816;8.740;2024-01-15T10:39:40;1.92;;;0.90;;
84589;SDS011;75075;48.816;8.740;2024-01-15T10:44:41;2.00;;;0.80;;
84589;SDS011;75075;48.816;8.740;2024-01-15T10:49:43;1.98;;;0.80;;
84589;SDS011;75075;48.816;8.740;2024-01-15T10:54:43;2.40;;;1.00;;
84589;SDS011;75075;48.816;8.740;2024-01-15T10:59:45;2.08;;;0.93;;
84589;SDS011;75075;48.816;8.740;2024-01-15T11:04:45;3.53;;;1.10;;
84589;SDS011;75075;48.816;8.740;2024-01-15T11:09:45;4.18;;;0.90;;
84589;SDS011;75075;48.816;8.740;2024-01-15T11:14:47;2.65;;;1.00;;
84589;SDS011;75075;48.816;8.740;2024-01-15T11:19:48;1.60;;;0.90;;
84589;SDS011;75075;48.816;8.740;2024-01-15T11:24:52;2.40;;;0.90;;
84589;SDS011;75075;48.816;8.740;2024-01-15T11:30:02;4.05;;;1.50;;
84589;SDS011;75075;48.816;8.740;2024-01-15T11:35:03;31.33;;;12.23;;
84589;SDS011;75075;48.816;8.740;2024-01-15T11:40:04;44.17;;;15.23;;
84589;SDS011;75075;48.816;8.740;2024-01-15T11:45:05;32.88;;;12.27;;
84589;SDS011;75075;48.816;8.740;2024-01-15T11:50:05;31.00;;;12.15;;
84589;SDS011;75075;48.816;8.740;2024-01-15T11:55:11;33.30;;;10.77;;
84589;SDS011;75075;48.816;8.740;2024-01-15T12:00:16;30.98;;;11.27;;
84589;SDS011;75075;48.816;8.740;2024-01-15T12:05:18;23.48;;;9.02;;
84589;SDS011;75075;48.816;8.740;2024-01-15T12:10:20;22.73;;;8.35;;
84589;SDS011;75075;48.816;8.740;2024-01-15T12:15:21;22.92;;;7.45;;
84589;SDS011;75075;48.816;8.740;2024-01-15T12:20:21;18.10;;;7.18;;
84589;SDS011;75075;48.816;8.740;2024-01-15T12:25:23;18.23;;;7.18;;
84589;SDS011;75075;48.816;8.740;2024-01-15T12:30:28;18.17;;;5.68;;
84589;SDS011;75075;48.816;8.740;2024-01-15T12:35:31;14.60;;;5.38;;
84589;SDS011;75075;48.816;8.740;2024-01-15T12:40:33;14.45;;;4.88;;
84589;SDS011;75075;48.816;8.740;2024-01-15T12:45:36;14.65;;;4.60;;
84589;SDS011;75075;48.816;8.740;2024-01-15T12:50:37;12.40;;;4.32;;
84589;SDS011;75075;48.816;8.740;2024-01-15T12:55:38;31.85;;;9.30;;
84589;SDS011;75075;48.816;8.740;2024-01-15T13:00:38;23.13;;;8.20;;
84589;SDS011;75075;48.816;8.740;2024-01-15T13:05:38;18.50;;;7.03;;
84589;SDS011;75075;48.816;8.740;2024-01-15T13:10:39;19.05;;;6.45;;
84589;SDS011;75075;48.816;8.740;2024-01-15T13:15:42;16.80;;;6.10;;
84589;SDS011;75075;48.816;8.740;2024-01-15T13:20:42;20.63;;;5.77;;
84589;SDS011;75075;48.816;8.740;2024-01-15T13:25:42;12.05;;;4.20;;
84589;SDS011;75075;48.816;8.740;2024-01-15T13:30:43;14.77;;;4.60;;
84589;SDS011;75075;48.816;8.740;2024-01-15T13:35:43;14.98;;;4.85;;
84589;SDS011;75075;48.816;8.740;2024-01-15T13:40:43;14.10;;;4.57;;
84589;SDS011;75075;48.816;8.740;2024-01-15T13:45:45;14.15;;;4.05;;
84589;SDS011;75075;48.816;8.740;2024-01-15T13:50:46;11.45;;;3.58;;
84589;SDS011;75075;48.816;8.740;2024-01-15T13:55:46;9.85;;;3.72;;
84589;SDS011;75075;48.816;8.740;2024-01-15T14:00:47;8.65;;;3.20;;
84589;SDS011;75075;48.816;8.740;2024-01-15T14:05:48;9.52;;;3.10;;
84589;SDS011;75075;48.816;8.740;2024-01-15T14:10:51;9.73;;;3.55;;
84589;SDS011;75075;48.816;8.740;2024-01-15T14:15:51;9.30;;;3.38;;
84589;SDS011;75075;48.816;8.740;2024-01-15T14:20:51;9.73;;;3.20;;
84589;SDS011;75075;48.816;8.740;2024-01-15T14:25:53;7.13;;;3.00;;
84589;SDS011;75075;48.816;8.740;2024-01-15T14:30:53;7.53;;;2.65;;
84589;SDS011;75075;48.816;8.740;2024-01-15T14:35:55;7.18;;;2.65;;
84589;SDS011;75075;48.816;8.740;2024-01-15T14:40:56;7.38;;;2.60;;
84589;SDS011;75075;48.816;8.740;2024-01-15T14:45:56;6.83;;;2.40;;
84589;SDS011;75075;48.816;8.740;2024-01-15T14:50:56;6.63;;;2.23;;
84589;SDS011;75075;48.816;8.740;2024-01-15T14:55:57;5.85;;;2.35;;
84589;SDS011;75075;48.816;8.740;2024-01-15T15:00:57;6.17;;;1.87;;
84589;SDS011;75075;48.816;8.740;2024-01-15T15:05:58;4.70;;;1.90;;
84589;SDS011;75075;48.816;8.740;2024-01-15T15:10:59;4.53;;;1.60;;
84589;SDS011;75075;48.816;8.740;2024-01-15T15:15:59;5.40;;;1.88;;
84589;SDS011;75075;48.816;8.740;2024-01-15T15:21:00;5.28;;;1.80;;
84589;SDS011;75075;48.816;8.740;2024-01-15T15:26:00;5.10;;;1.80;;
84589;SDS011;75075;48.816;8.740;2024-01-15T15:31:00;16.75;;;5.95;;
84589;SDS011;75075;48.816;8.740;2024-01-15T15:36:01;15.23;;;5.20;;
84589;SDS011;75075;48.816;8.740;2024-01-15T15:41:04;12.05;;;5.00;;
84589;SDS011;75075;48.816;8.740;2024-01-15T15:46:05;12.27;;;4.63;;
84589;SDS011;75075;48.816;8.740;2024-01-15T15:51:05;13.97;;;5.30;;
84589;SDS011;75075;48.816;8.740;2024-01-15T15:56:05;10.77;;;4.20;;
84589;SDS011;75075;48.816;8.740;2024-01-15T16:01:06;9.70;;;3.55;;
84589;SDS011;75075;48.816;8.740;2024-01-15T16:06:06;12.40;;;3.78;;
84589;SDS011;75075;48.816;8.740;2024-01-15T16:11:07;9.95;;;3.47;;
84589;SDS011;75075;48.816;8.740;2024-01-15T16:16:07;8.77;;;3.63;;
84589;SDS011;75075;48.816;8.740;2024-01-15T16:21:07;8.20;;;3.05;;
84589;SDS011;75075;48.816;8.740;2024-01-15T16:26:07;10.60;;;3.17;;
84589;SDS011;75075;48.816;8.740;2024-01-15T16:31:08;9.70;;;3.42;;
84589;SDS011;75075;48.816;8.740;2024-01-15T16:36:08;10.35;;;3.17;;
84589;SDS011;75075;48.816;8.740;2024-01-15T16:41:09;9.07;;;2.92;;
84589;SDS011;75075;48.816;8.740;2024-01-15T16:46:09;7.70;;;2.80;;
84589;SDS011;75075;48.816;8.740;2024-01-15T16:51:11;7.32;;;2.85;;
84589;SDS011;75075;48.816;8.740;2024-01-15T16:56:11;6.75;;;2.42;;
84589;SDS011;75075;48.816;8.740;2024-01-15T17:01:11;6.60;;;2.20;;
84589;SDS011;75075;48.816;8.740;2024-01-15T17:06:12;6.57;;;2.30;;
84589;SDS011;75075;48.816;8.740;2024-01-15T17:11:13;5.78;;;2.20;;
84589;SDS011;75075;48.816;8.740;2024-01-15T17:16:13;5.63;;;1.95;;
84589;SDS011;75075;48.816;8.740;2024-01-15T17:21:13;5.57;;;2.50;;
84589;SDS011;75075;48.816;8.740;2024-01-15T17:26:14;5.47;;;2.20;;
84589;SDS011;75075;48.816;8.740;2024-01-15T17:31:14;6.87;;;2.00;;
84589;SDS011;75075;48.816;8.740;2024-01-15T17:36:14;5.70;;;1.90;;
84589;SDS011;75075;48.816;8.740;2024-01-15T17:41:15;3.83;;;1.70;;
84589;SDS011;75075;48.816;8.740;2024-01-15T17:46:16;5.13;;;1.65;;
84589;SDS011;75075;48.816;8.740;2024-01-15T17:51:19;4.32;;;1.73;;
84589;SDS011;75075;48.816;8.740;2024-01-15T17:56:20;4.95;;;1.70;;
84589;SDS011;75075;48.816;8.740;2024-01-15T18:01:20;4.32;;;1.73;;
84589;SDS011;75075;48.816;8.740;2024-01-15T18:06:21;4.32;;;1.70;;
84589;SDS011;75075;48.816;8.740;2024-01-15T18:11:21;4.30;;;1.80;;
84589;SDS011;75075;48.816;8.740;2024-01-15T18:16:21;3.38;;;1.48;;
84589;SDS011;75075;48.816;8.740;2024-01-15T18:21:25;3.65;;;1.60;;
84589;SDS011;75075;48.816;8.740;2024-01-15T18:26:25;3.37;;;1.60;;
84589;SDS011;75075;48.816;8.740;2024-01-15T18:31:25;3.33;;;1.50;;
84589;SDS011;75075;48.816;8.740;2024-01-15T18:36:27;3.35;;;1.50;;
84589;SDS011;75075;48.816;8.740;2024-01-15T18:41:27;3.95;;;1.60;;
84589;SDS011;75075;48.816;8.740;2024-01-15T18:46:28;4.45;;;1.60;;
84589;SDS011;75075;48.816;8.740;2024-01-15T18:51:28;2.67;;;1.10;;
84589;SDS011;75075;48.816;8.740;2024-01-15T18:56:28;3.23;;;1.30;;
84589;SDS011;75075;48.816;8.740;2024-01-15T19:01:30;2.90;;;1.10;;
84589;SDS011;75075;48.816;8.740;2024-01-15T19:06:30;3.60;;;1.33;;
84589;SDS011;75075;48.816;8.740;2024-01-15T19:11:31;2.50;;;1.13;;
84589;SDS011;75075;48.816;8.740;2024-01-15T19:16:31;3.20;;;1.40;;
84589;SDS011;75075;48.816;8.740;2024-01-15T19:21:31;2.90;;;1.10;;
84589;SDS011;75075;48.816;8.740;2024-01-15T19:26:32;2.50;;;1.20;;
84589;SDS011;75075;48.816;8.740;2024-01-15T19:31:33;3.15;;;1.10;;
84589;SDS011;75075;48.816;8.740;2024-01-15T19:36:34;3.17;;;1.40;;
84589;SDS011;75075;48.816;8.740;2024-01-15T19:41:35;2.92;;;1.20;;
84589;SDS011;75075;48.816;8.740;2024-01-15T19:46:35;2.72;;;1.17;;
84589;SDS011;75075;48.816;8.740;2024-01-15T19:51:35;2.90;;;1.20;;
84589;SDS011;75075;48.816;8.740;2024-01-15T19:56:35;2.97;;;1.10;;
84589;SDS011;75075;48.816;8.740;2024-01-15T20:01:37;2.00;;;0.90;;
84589;SDS011;75075;48.816;8.740;2024-01-15T20:06:38;2.40;;;1.10;;
84589;SDS011;75075;48.816;8.740;2024-01-15T20:11:38;2.47;;;1.05;;
84589;SDS011;75075;48.816;8.740;2024-01-15T20:16:38;3.00;;;1.30;;
84589;SDS011;75075;48.816;8.740;2024-01-15T20:21:39;2.30;;;1.10;;
84589;SDS011;75075;48.816;8.740;2024-01-15T20:26:39;2.25;;;1.10;;
84589;SDS011;75075;48.816;8.740;2024-01-15T20:31:40;2.35;;;1.00;;
84589;SDS011;75075;48.816;8.740;2024-01-15T20:36:40;2.10;;;1.00;;
84589;SDS011;75075;48.816;8.740;2024-01-15T20:41:40;3.47;;;1.53;;
84589;SDS011;75075;48.816;8.740;2024-01-15T20:46:40;2.75;;;1.15;;
84589;SDS011;75075;48.816;8.740;2024-01-15T20:51:41;2.22;;;1.00;;
84589;SDS011;75075;48.816;8.740;2024-01-15T20:56:41;2.60;;;1.08;;
84589;SDS011;75075;48.816;8.740;2024-01-15T21:01:41;3.33;;;1.17;;
84589;SDS011;75075;48.816;8.740;2024-01-15T21:06:41;2.88;;;1.20;;
84589;SDS011;75075;48.816;8.740;2024-01-15T21:11:42;2.60;;;1.20;;
84589;SDS011;75075;48.816;8.740;2024-01-15T21:16:42;1.77;;;0.88;;
84589;SDS011;75075;48.816;8.740;2024-01-15T21:21:42;2.47;;;1.00;;
84589;SDS011;75075;48.816;8.740;2024-01-15T21:26:44;2.67;;;1.17;;
84589;SDS011;75075;48.816;8.740;2024-01-15T21:31:44;2.60;;;1.00;;
84589;SDS011;75075;48.816;8.740;2024-01-15T21:36:44;3.05;;;1.20;;
84589;SDS011;75075;48.816;8.740;2024-01-15T21:41:44;2.90;;;1.30;;
84589;SDS011;75075;48.816;8.740;2024-01-15T21:46:45;2.10;;;1.08;;
84589;SDS011;75075;48.816;8.740;2024-01-15T21:51:45;2.22;;;1.13;;
84589;SDS011;75075;48.816;8.740;2024-01-15T21:56:45;2.03;;;0.90;;
84589;SDS011;75075;48.816;8.740;2024-01-15T22:01:45;2.22;;;0.90;;
84589;SDS011;75075;48.816;8.740;2024-01-15T22:06:51;2.38;;;1.00;;
84589;SDS011;75075;48.816;8.740;2024-01-15T22:11:51;2.03;;;0.90;;
84589;SDS011;75075;48.816;8.740;2024-01-15T22:16:52;2.13;;;0.98;;
84589;SDS011;75075;48.816;8.740;2024-01-15T22:21:52;1.92;;;0.90;;
84589;SDS011;75075;48.816;8.740;2024-01-15T22:26:52;2.40;;;0.95;;
84589;SDS011;75075;48.816;8.740;2024-01-15T22:31:53;2.38;;;0.90;;
84589;SDS011;75075;48.816;8.740;2024-01-15T22:36:53;2.67;;;1.00;;
84589;SDS011;75075;48.816;8.740;2024-01-15T22:41:53;2.80;;;1.10;;
84589;SDS011;75075;48.816;8.740;2024-01-15T22:46:54;2.08;;;1.00;;
84589;SDS011;75075;48.816;8.740;2024-01-15T22:51:54;2.60;;;0.90;;
84589;SDS011;75075;48.816;8.740;2024-01-15T22:56:54;2.58;;;0.90;;
84589;SDS011;75075;48.816;8.740;2024-01-15T23:01:54;2.35;;;0.93;;
84589;SDS011;75075;48.816;8.740;2024-01-15T23:06:55;2.05;;;0.85;;
84589;SDS011;75075;48.816;8.740;2024-01-15T23:11:55;2.28;;;1.00;;
84589;SDS011;75075;48.816;8.740;2024-01-15T23:16:55;2.25;;;1.00;;
84589;SDS011;75075;48.816;8.740;2024-01-15T23:21:56;2.70;;;1.10;;
84589;SDS011;75075;48.816;8.740;2024-01-15T23:26:57;2.33;;;0.80;;
84589;SDS011;75075;48.816;8.740;2024-01-15T23:31:57;1.95;;;0.85;;
84589;SDS011;75075;48.816;8.740;2024-01-15T23:36:58;2.30;;;1.00;;
84589;SDS011;75075;48.816;8.740;2024-01-15T23:41:58;1.77;;;0.90;;
84589;SDS011;75075;48.816;8.740;2024-01-15T23:46:58;1.58;;;0.80;;
84589;SDS011;75075;48.816;8.740;2024-01-15T23:51:58;2.25;;;0.80;;
84589;SDS011;75075;48.816;8.740;2024-01-15T23:56:58;1.95;;;0.70;;
